Time;durP1;ratioP1;P1;durP2;ratioP2;P2;SDS_P1;SDS_P2;PMS_P1;PMS_P2;Temp;Humidity;BMP_temperature;BMP_pressure;BME280_temperature;BME280_humidity;BME280_pressure;Samples;Min_cycle;Max_cycle;Signal;HPM_P1;HPM_P2
2021/09/18 00:00:00;;;;;;;9.50;8.50;;;;;;;13.39;88.58;96685.44;5025160;28;20182;-65
2021/09/18 00:02:25;;;;;;;11.23;9.00;;;;;;;13.36;88.85;96697.25;5026670;28;20266;-65
2021/09/18 00:04:51;;;;;;;10.03;9.03;;;;;;;13.32;89.12;96702.22;5028175;28;20178;-65
2021/09/18 00:07:16;;;;;;;10.80;9.23;;;;;;;13.41;88.81;96699.16;5027925;28;20592;-65
2021/09/18 00:09:42;;;;;;;10.47;8.63;;;;;;;13.36;88.77;96707.00;5013064;28;20183;-65
2021/09/18 00:12:07;;;;;;;10.70;9.60;;;;;;;13.31;89.01;96703.28;5003384;28;20195;-65
2021/09/18 00:14:33;;;;;;;10.40;9.30;;;;;;;13.27;89.61;96707.41;5023878;28;20266;-65
2021/09/18 00:16:59;;;;;;;10.30;9.30;;;;;;;13.21;89.65;96711.03;5027947;28;20201;-65
2021/09/18 00:19:24;;;;;;;11.03;9.87;;;;;;;13.36;89.05;96707.00;5017537;28;20278;-65
2021/09/18 00:21:50;;;;;;;10.70;9.60;;;;;;;13.33;89.16;96703.00;5026045;28;20186;-65
2021/09/18 00:24:15;;;;;;;10.63;9.57;;;;;;;13.33;89.60;96700.38;5008708;28;20198;-65
2021/09/18 00:26:41;;;;;;;11.00;9.90;;;;;;;13.07;90.88;96714.25;5022490;28;20183;-65
2021/09/18 00:29:06;;;;;;;10.93;9.80;;;;;;;13.13;90.79;96711.47;5004855;28;20266;-66
2021/09/18 00:31:32;;;;;;;11.37;10.17;;;;;;;13.09;91.27;96705.06;5020666;28;20194;-65
2021/09/18 00:33:58;;;;;;;11.83;10.20;;;;;;;12.98;92.10;96707.81;5028436;28;20214;-65
2021/09/18 00:36:23;;;;;;;12.17;10.57;;;;;;;13.06;91.45;96705.53;5022006;28;20198;-66
2021/09/18 00:38:49;;;;;;;12.10;10.83;;;;;;;13.02;91.56;96701.00;5017826;28;20207;-65
2021/09/18 00:41:14;;;;;;;13.63;10.60;;;;;;;12.87;92.48;96707.66;5029076;28;20231;-65
2021/09/18 00:43:40;;;;;;;12.47;10.63;;;;;;;12.89;92.39;96707.41;5022383;28;20191;-65
2021/09/18 00:46:05;;;;;;;11.03;9.77;;;;;;;12.81;92.98;96705.22;5023666;28;20650;-65
2021/09/18 00:48:31;;;;;;;11.90;10.23;;;;;;;12.74;93.57;96704.59;5025538;28;20186;-65
2021/09/18 00:50:56;;;;;;;12.03;10.07;;;;;;;12.67;94.20;96703.94;5022131;28;20187;-64
2021/09/18 00:53:23;;;;;;;12.03;10.73;;;;;;;12.60;94.71;96704.13;5026962;28;20214;-64
2021/09/18 00:55:49;;;;;;;11.40;10.20;;;;;;;12.59;94.96;96697.28;5017061;28;20337;-65
2021/09/18 00:58:14;;;;;;;11.63;10.37;;;;;;;12.64;94.75;96696.56;5025226;28;20606;-64
2021/09/18 01:00:40;;;;;;;13.50;10.93;;;;;;;12.71;94.56;96699.78;5026802;28;20587;-65
2021/09/18 01:03:05;;;;;;;15.07;10.20;;;;;;;12.65;94.33;96696.28;5023749;28;20186;-65
2021/09/18 01:05:31;;;;;;;14.83;9.93;;;;;;;12.67;94.36;96701.31;5019810;28;20655;-65
2021/09/18 01:07:57;;;;;;;11.20;10.10;;;;;;;12.69;94.26;96705.31;5021404;28;20266;-66
2021/09/18 01:10:23;;;;;;;19.53;11.40;;;;;;;12.72;94.22;96704.03;5028988;28;20187;-65
2021/09/18 01:13:01;;;;;;;15.83;11.20;;;;;;;12.80;94.26;96703.63;5020545;28;20195;-65
2021/09/18 01:15:28;;;;;;;12.87;9.67;;;;;;;12.73;94.05;96697.72;5021968;28;20217;-65
2021/09/18 01:17:55;;;;;;;12.33;9.77;;;;;;;12.68;94.34;96702.91;5014855;28;20594;-65
2021/09/18 01:20:20;;;;;;;12.10;10.50;;;;;;;12.70;94.18;96699.03;5029650;28;20222;-65
2021/09/18 01:22:48;;;;;;;11.80;10.23;;;;;;;12.67;94.19;96696.88;5016714;28;20591;-65
2021/09/18 01:25:13;;;;;;;13.63;10.40;;;;;;;12.66;94.43;96691.84;5022246;28;20183;-65
2021/09/18 01:27:38;;;;;;;11.73;10.53;;;;;;;12.72;93.82;96704.03;5024960;28;20635;-66
2021/09/18 01:30:04;;;;;;;11.87;10.50;;;;;;;12.71;93.65;96697.16;5028369;28;20627;-65
2021/09/18 01:32:30;;;;;;;14.60;9.60;;;;;;;12.75;93.08;96691.19;5024009;28;20199;-65
2021/09/18 01:34:55;;;;;;;10.97;9.67;;;;;;;12.65;93.68;96692.91;5009042;28;20186;-65
2021/09/18 01:37:20;;;;;;;10.80;8.83;;;;;;;12.65;93.55;96692.91;5022330;28;20212;-65
2021/09/18 01:39:46;;;;;;;11.43;9.37;;;;;;;12.67;92.94;96686.34;5020040;28;20213;-65
2021/09/18 01:42:11;;;;;;;13.53;9.97;;;;;;;12.66;92.80;96687.38;5028684;28;20234;-65
2021/09/18 01:44:37;;;;;;;12.60;9.70;;;;;;;12.69;92.48;96691.38;5015837;28;20190;-65
2021/09/18 01:47:02;;;;;;;12.43;10.03;;;;;;;12.66;92.56;96689.22;5026884;28;20190;-65
2021/09/18 01:49:28;;;;;;;12.93;9.97;;;;;;;12.60;93.18;96690.16;5022255;28;20562;-65
2021/09/18 01:52:17;;;;;;;12.03;10.47;;;;;;;12.79;92.20;96680.97;5019819;28;20237;-65
2021/09/18 01:54:43;;;;;;;11.67;10.20;;;;;;;12.69;92.60;96686.13;5017395;28;20621;-65
2021/09/18 01:57:09;;;;;;;13.43;10.80;;;;;;;12.69;92.83;96688.75;5008697;28;20266;-65
2021/09/18 01:59:34;;;;;;;11.40;10.03;;;;;;;12.57;93.49;96694.09;5022806;28;20594;-65
2021/09/18 02:02:00;;;;;;;15.13;10.67;;;;;;;12.63;93.04;96687.88;5032809;28;20181;-66
2021/09/18 02:04:25;;;;;;;13.63;11.60;;;;;;;12.45;94.06;96686.28;5015589;28;20188;-65
2021/09/18 02:06:50;;;;;;;12.90;11.23;;;;;;;12.56;93.84;96686.44;5028649;28;20191;-64
2021/09/18 02:09:16;;;;;;;13.33;11.40;;;;;;;12.60;93.20;96679.66;5018443;28;20194;-65
2021/09/18 02:11:41;;;;;;;12.53;11.20;;;;;;;12.61;93.26;96676.78;5025314;28;20187;-65
2021/09/18 02:14:07;;;;;;;12.00;10.37;;;;;;;12.50;94.20;96675.06;5020928;28;20641;-65
2021/09/18 02:16:32;;;;;;;16.50;11.03;;;;;;;12.54;93.87;96676.16;5003366;28;20327;-65
2021/09/18 02:18:57;;;;;;;12.67;11.13;;;;;;;12.50;93.92;96675.84;5016464;28;20248;-65
2021/09/18 02:21:23;;;;;;;11.80;9.87;;;;;;;12.46;94.49;96681.84;5031099;28;20655;-65
2021/09/18 02:23:48;;;;;;;13.17;11.30;;;;;;;12.45;94.34;96681.03;5016766;28;20188;-65
2021/09/18 02:26:14;;;;;;;13.07;10.93;;;;;;;12.48;94.36;96677.16;5032366;28;20183;-65
2021/09/18 02:28:40;;;;;;;12.27;10.53;;;;;;;12.47;94.31;96681.59;5022482;28;20179;-65
2021/09/18 02:31:05;;;;;;;12.77;11.17;;;;;;;12.43;94.57;96675.22;5034818;28;20195;-65
2021/09/18 02:33:30;;;;;;;14.20;11.33;;;;;;;12.49;94.21;96683.97;5035455;28;20194;-65
2021/09/18 02:35:56;;;;;;;11.97;9.97;;;;;;;12.35;94.99;96680.88;5019564;28;20191;-65
2021/09/18 02:38:21;;;;;;;14.60;10.77;;;;;;;12.52;93.95;96680.06;5032422;28;20675;-65
2021/09/18 02:40:52;;;;;;;13.03;10.07;;;;;;;12.43;94.38;96677.84;5023300;28;20218;-65
2021/09/18 02:43:18;;;;;;;11.97;9.93;;;;;;;12.50;93.98;96682.94;5024656;28;20179;-65
2021/09/18 02:45:43;;;;;;;12.30;10.13;;;;;;;12.38;94.61;96675.13;4999066;28;20253;-65
2021/09/18 02:48:08;;;;;;;11.70;9.73;;;;;;;12.44;94.47;96678.63;5032314;28;20217;-65
2021/09/18 02:50:34;;;;;;;13.27;9.60;;;;;;;12.38;94.99;96675.13;5021147;28;20190;-65
2021/09/18 02:52:59;;;;;;;13.17;9.80;;;;;;;12.25;96.04;96674.69;5017352;28;20171;-65
2021/09/18 02:55:25;;;;;;;12.03;9.50;;;;;;;12.26;95.24;96678.91;5021500;28;20233;-65
2021/09/18 02:57:50;;;;;;;13.10;10.40;;;;;;;12.40;94.29;96673.09;5031018;28;20667;-65
2021/09/18 03:00:16;;;;;;;10.80;9.63;;;;;;;12.24;95.27;96680.97;5005415;28;20674;-65
2021/09/18 03:02:42;;;;;;;11.93;9.47;;;;;;;12.13;95.86;96671.34;5030179;28;20667;-65
2021/09/18 03:05:09;;;;;;;11.10;9.80;;;;;;;12.19;95.53;96670.38;5029659;28;20262;-65
2021/09/18 03:07:34;;;;;;;11.70;9.50;;;;;;;12.19;95.94;96671.19;5021946;28;20250;-65
2021/09/18 03:10:00;;;;;;;14.57;9.60;;;;;;;12.17;96.01;96667.19;5025859;28;20270;-64
2021/09/18 03:12:25;;;;;;;14.67;9.87;;;;;;;12.04;96.85;96668.28;5028622;28;20568;-65
2021/09/18 03:14:51;;;;;;;11.97;9.77;;;;;;;12.07;97.01;96666.00;5021254;28;20241;-65
2021/09/18 03:17:16;;;;;;;10.60;9.00;;;;;;;12.12;96.27;96662.66;5018563;28;20266;-65
2021/09/18 03:19:42;;;;;;;11.77;9.67;;;;;;;12.09;96.34;96661.28;5028574;28;20234;-65
2021/09/18 03:22:08;;;;;;;14.60;10.30;;;;;;;11.99;97.46;96657.72;5025557;28;20217;-65
2021/09/18 03:24:33;;;;;;;15.73;10.53;;;;;;;12.15;96.17;96654.28;5033531;28;20179;-65
2021/09/18 03:26:59;;;;;;;10.67;9.57;;;;;;;12.11;96.59;96660.25;5018482;28;20270;-65
2021/09/18 03:29:25;;;;;;;14.23;10.13;;;;;;;12.12;96.38;96654.78;5033547;28;20547;-65
2021/09/18 03:31:51;;;;;;;11.93;9.87;;;;;;;12.24;95.45;96652.88;5034597;28;20198;-65
2021/09/18 03:34:16;;;;;;;14.43;9.67;;;;;;;11.96;96.97;96664.25;5029564;28;20193;-65
2021/09/18 03:36:42;;;;;;;13.00;9.37;;;;;;;11.91;97.43;96661.53;5020878;28;20274;-65
2021/09/18 03:39:07;;;;;;;11.37;8.73;;;;;;;11.92;97.15;96660.50;5031228;28;20197;-65
2021/09/18 03:41:33;;;;;;;11.90;9.40;;;;;;;11.86;97.29;96661.47;5017153;28;20238;-65
2021/09/18 03:43:58;;;;;;;12.03;8.97;;;;;;;11.87;97.11;96668.28;5023164;28;20266;-65
2021/09/18 03:46:23;;;;;;;12.37;9.53;;;;;;;11.89;96.63;96666.22;5023783;28;20675;-65
2021/09/18 03:48:49;;;;;;;13.37;9.67;;;;;;;11.89;96.77;96660.97;5019460;28;20230;-65
2021/09/18 03:51:14;;;;;;;10.50;8.87;;;;;;;11.88;96.93;96658.56;5031352;28;20194;-65
2021/09/18 03:53:40;;;;;;;11.87;8.80;;;;;;;11.74;97.82;96652.03;5019296;28;20635;-65
2021/09/18 03:56:06;;;;;;;15.27;9.70;;;;;;;11.84;96.67;96660.09;5009163;28;20187;-64
2021/09/18 03:58:32;;;;;;;12.23;9.03;;;;;;;11.79;97.07;96660.00;5026041;28;20242;-65
2021/09/18 04:00:57;;;;;;;11.93;8.53;;;;;;;11.80;97.00;96664.22;5019347;28;20187;-65
2021/09/18 04:03:23;;;;;;;12.03;8.60;;;;;;;11.81;96.82;96660.56;5031115;28;20186;-65
2021/09/18 04:05:48;;;;;;;14.53;10.17;;;;;;;11.89;95.62;96655.72;5019206;28;20233;-65
2021/09/18 04:08:13;;;;;;;16.13;9.60;;;;;;;11.94;95.05;96660.25;5025621;28;20187;-65
2021/09/18 04:10:39;;;;;;;12.10;9.20;;;;;;;11.79;95.80;96660.81;5008769;28;20185;-65
2021/09/18 04:13:05;;;;;;;13.77;9.00;;;;;;;11.76;95.85;96655.25;5018528;28;20196;-65
2021/09/18 04:15:30;;;;;;;10.83;9.37;;;;;;;11.78;95.57;96659.22;5031648;28;20192;-65
2021/09/18 04:17:56;;;;;;;11.80;9.83;;;;;;;11.76;95.65;96661.25;5028324;28;20199;-65
2021/09/18 04:20:22;;;;;;;12.70;10.23;;;;;;;11.63;96.41;96656.28;5023832;28;20269;-65
2021/09/18 04:22:48;;;;;;;14.43;10.97;;;;;;;11.72;95.90;96660.13;5020853;28;20239;-65
2021/09/18 04:25:13;;;;;;;13.87;9.13;;;;;;;11.69;95.84;96668.47;5030252;28;20186;-65
2021/09/18 04:27:38;;;;;;;14.40;10.17;;;;;;;11.48;97.27;96667.31;5015453;28;20265;-65
2021/09/18 04:30:05;;;;;;;12.30;9.63;;;;;;;11.56;96.64;96669.56;5025584;28;20186;-65
2021/09/18 04:32:31;;;;;;;12.43;9.60;;;;;;;11.82;95.06;96667.41;5024103;28;20245;-65
2021/09/18 04:34:57;;;;;;;12.60;9.27;;;;;;;11.72;95.28;96667.19;5018348;28;20195;-64
2021/09/18 04:37:23;;;;;;;12.73;10.13;;;;;;;11.66;95.69;96671.56;5028846;28;20652;-65
2021/09/18 04:39:48;;;;;;;13.87;10.43;;;;;;;11.70;95.24;96674.53;5017735;28;20203;-65
2021/09/18 04:42:14;;;;;;;14.67;10.20;;;;;;;11.62;95.20;96673.06;5024937;28;20302;-65
2021/09/18 04:44:39;;;;;;;11.43;9.10;;;;;;;11.56;95.57;96681.88;5024112;28;20632;-65
2021/09/18 04:47:05;;;;;;;11.87;9.33;;;;;;;11.54;95.58;96681.31;5018906;28;20225;-66
2021/09/18 04:49:30;;;;;;;12.37;10.00;;;;;;;11.58;95.21;96682.47;5012292;28;20643;-65
2021/09/18 04:51:55;;;;;;;11.47;9.60;;;;;;;11.44;96.01;96684.56;5017915;28;20564;-65
2021/09/18 04:54:21;;;;;;;15.83;10.30;;;;;;;11.54;95.11;96682.13;5031625;28;20674;-65
2021/09/18 04:56:46;;;;;;;13.30;10.10;;;;;;;11.53;95.07;96687.63;5024429;28;20199;-64
2021/09/18 04:59:12;;;;;;;11.30;9.57;;;;;;;11.52;95.31;96686.03;5028054;28;20570;-64
2021/09/18 05:01:37;;;;;;;13.20;9.57;;;;;;;11.52;95.21;96694.69;5017125;28;20183;-66
2021/09/18 05:04:02;;;;;;;10.53;9.23;;;;;;;11.47;95.43;96693.81;5024636;28;20183;-65
2021/09/18 05:06:28;;;;;;;10.93;9.63;;;;;;;11.52;95.27;96701.78;5021389;28;20182;-65
2021/09/18 05:08:53;;;;;;;10.67;8.93;;;;;;;11.54;95.24;96707.56;5020925;28;20588;-65
2021/09/18 05:11:18;;;;;;;14.07;9.80;;;;;;;11.52;95.68;96705.19;5010517;28;20187;-65
2021/09/18 05:13:44;;;;;;;15.33;10.37;;;;;;;11.59;95.09;96702.44;5012672;28;20560;-65
2021/09/18 05:16:09;;;;;;;13.77;9.70;;;;;;;11.61;94.13;96705.59;5007358;28;20175;-65
2021/09/18 05:18:35;;;;;;;11.40;9.43;;;;;;;11.76;93.47;96708.53;5018124;28;20215;-64
2021/09/18 05:21:00;;;;;;;10.63;8.80;;;;;;;11.83;93.33;96709.19;5018285;28;20694;-64
2021/09/18 05:23:25;;;;;;;12.60;8.83;;;;;;;12.11;91.24;96710.19;5019248;28;20230;-64
2021/09/18 05:25:51;;;;;;;11.13;8.33;;;;;;;12.15;90.51;96711.31;5023811;28;20191;-64
2021/09/18 05:28:16;;;;;;;9.67;8.00;;;;;;;12.06;91.75;96709.06;5023845;28;20237;-64
2021/09/18 05:30:42;;;;;;;9.53;8.37;;;;;;;12.13;92.08;96705.50;5019044;28;20223;-64
2021/09/18 05:33:07;;;;;;;10.73;8.50;;;;;;;12.31;90.94;96703.44;5026988;28;20506;-64
2021/09/18 05:35:33;;;;;;;9.43;8.10;;;;;;;12.48;89.85;96712.09;5020740;28;20183;-64
2021/09/18 05:37:58;;;;;;;11.20;8.10;;;;;;;12.43;89.76;96712.00;5021421;28;20197;-62
2021/09/18 05:40:27;;;;;;;10.43;7.73;;;;;;;12.61;88.42;96710.16;5021085;28;20298;-64
2021/09/18 05:42:53;;;;;;;9.30;7.77;;;;;;;12.82;87.81;96704.16;5014109;28;20183;-64
2021/09/18 05:45:19;;;;;;;9.30;7.37;;;;;;;12.96;86.21;96708.03;5026902;28;20182;-64
2021/09/18 05:47:44;;;;;;;8.90;7.37;;;;;;;13.01;86.00;96709.94;5026688;28;20191;-64
2021/09/18 05:50:10;;;;;;;8.23;7.43;;;;;;;13.17;85.22;96709.94;5006967;28;20189;-64
2021/09/18 05:52:36;;;;;;;10.07;7.83;;;;;;;13.33;84.93;96709.06;5009105;28;20190;-64
2021/09/18 05:55:01;;;;;;;10.57;8.07;;;;;;;13.48;84.42;96710.31;5025706;28;20262;-64
2021/09/18 05:57:27;;;;;;;10.43;7.07;;;;;;;13.71;82.96;96707.38;5019670;28;20562;-64
2021/09/18 05:59:52;;;;;;;8.50;7.33;;;;;;;13.72;83.02;96709.75;5022875;28;20184;-64
2021/09/18 06:02:18;;;;;;;11.73;7.30;;;;;;;13.93;81.62;96713.38;5031894;28;20217;-64
2021/09/18 06:04:43;;;;;;;8.67;6.90;;;;;;;13.89;81.19;96717.56;5020088;28;20183;-64
2021/09/18 06:07:08;;;;;;;7.30;6.50;;;;;;;13.80;81.57;96726.19;5025920;28;20183;-64
2021/09/18 06:09:34;;;;;;;7.43;6.27;;;;;;;13.85;81.07;96718.31;5030204;28;20218;-64
2021/09/18 06:11:59;;;;;;;9.17;6.70;;;;;;;13.86;80.41;96719.91;5026448;28;20218;-64
2021/09/18 06:14:24;;;;;;;8.70;6.37;;;;;;;14.00;78.75;96729.81;5005502;28;20260;-64
2021/09/18 06:16:50;;;;;;;7.57;5.90;;;;;;;14.06;78.57;96720.09;5032543;28;20183;-64
2021/09/18 06:19:18;;;;;;;10.27;6.70;;;;;;;14.20;78.07;96731.03;5002550;28;20203;-64
2021/09/18 06:21:47;;;;;;;9.73;6.50;;;;;;;14.30;78.28;96733.75;5028016;28;20571;-63
2021/09/18 06:24:14;;;;;;;6.60;6.00;;;;;;;14.38;77.61;96734.13;5027678;28;20190;-64
2021/09/18 06:26:40;;;;;;;8.80;6.90;;;;;;;14.52;77.21;96729.22;5021568;28;20258;-64
2021/09/18 06:29:07;;;;;;;7.60;6.37;;;;;;;14.66;76.68;96733.00;5033365;28;20201;-64
2021/09/18 06:31:32;;;;;;;7.43;6.67;;;;;;;14.72;76.02;96733.84;5030841;28;20253;-65
2021/09/18 06:33:57;;;;;;;9.10;7.13;;;;;;;14.59;76.71;96737.72;5024603;28;20560;-64
2021/09/18 06:36:23;;;;;;;7.23;6.50;;;;;;;14.59;76.67;96735.09;5023989;28;20188;-64
2021/09/18 06:38:50;;;;;;;10.00;7.40;;;;;;;14.55;77.33;96731.34;5031388;28;20233;-64
2021/09/18 06:41:15;;;;;;;11.93;7.40;;;;;;;14.80;76.34;96739.44;5031499;28;20235;-64
2021/09/18 06:43:41;;;;;;;9.17;7.20;;;;;;;14.95;75.55;96739.53;5021779;28;20187;-62
2021/09/18 06:46:06;;;;;;;8.20;7.20;;;;;;;14.92;76.35;96736.63;5016090;28;20182;-64
2021/09/18 06:48:32;;;;;;;7.57;6.77;;;;;;;14.91;76.60;96737.66;5023960;28;20261;-64
2021/09/18 06:50:57;;;;;;;16.07;7.03;;;;;;;14.96;76.72;96740.34;5030793;28;20236;-64
2021/09/18 06:53:23;;;;;;;6.90;6.20;;;;;;;15.24;75.78;96739.16;5028310;28;20274;-63
2021/09/18 06:55:49;;;;;;;7.90;6.93;;;;;;;15.49;74.53;96739.25;5022241;28;20638;-64
2021/09/18 06:58:14;;;;;;;7.27;6.20;;;;;;;15.69;73.81;96734.09;5026045;28;20195;-63
2021/09/18 07:00:40;;;;;;;7.97;6.90;;;;;;;15.58;73.91;96737.75;5026158;28;20236;-65
2021/09/18 07:03:06;;;;;;;8.67;6.93;;;;;;;15.83;73.79;96737.03;5020440;28;20236;-66
2021/09/18 07:05:31;;;;;;;7.70;6.63;;;;;;;15.88;73.41;96742.34;5006135;28;20190;-63
2021/09/18 07:07:57;;;;;;;10.73;7.63;;;;;;;16.13;72.02;96736.28;5006083;28;20191;-63
2021/09/18 07:10:23;;;;;;;9.83;7.90;;;;;;;16.27;71.00;96731.31;5029806;28;20231;-64
2021/09/18 07:12:48;;;;;;;10.13;7.40;;;;;;;16.37;71.43;96733.94;5018158;28;20203;-64
2021/09/18 07:15:14;;;;;;;7.77;6.97;;;;;;;16.41;71.53;96735.78;5030300;28;20667;-64
2021/09/18 07:17:39;;;;;;;7.57;6.80;;;;;;;16.33;71.93;96736.31;5023651;28;20198;-64
2021/09/18 07:20:05;;;;;;;7.73;6.93;;;;;;;16.38;72.64;96738.97;5023519;28;20250;-65
2021/09/18 07:22:31;;;;;;;12.57;6.90;;;;;;;16.44;72.73;96737.13;5030777;28;20178;-64
2021/09/18 07:24:56;;;;;;;7.43;6.63;;;;;;;16.53;71.64;96728.38;5018010;28;20182;-64
2021/09/18 07:27:22;;;;;;;9.50;7.27;;;;;;;16.60;71.28;96736.91;5029518;28;20179;-64
2021/09/18 07:29:50;;;;;;;9.00;6.60;;;;;;;16.75;70.83;96744.03;5034450;28;20202;-63
2021/09/18 07:32:17;;;;;;;11.10;6.87;;;;;;;16.77;70.54;96741.91;5033963;28;20265;-63
2021/09/18 07:34:42;;;;;;;7.73;6.70;;;;;;;16.74;70.97;96746.91;5020309;28;20203;-64
2021/09/18 07:37:08;;;;;;;8.77;7.17;;;;;;;17.00;69.78;96748.47;5029191;28;20209;-63
2021/09/18 07:39:34;;;;;;;8.53;6.90;;;;;;;16.99;70.10;96749.56;5029497;28;20540;-63
2021/09/18 07:41:59;;;;;;;8.20;6.47;;;;;;;17.05;69.39;96743.94;5025696;28;20276;-63
2021/09/18 07:44:26;;;;;;;8.90;7.27;;;;;;;17.14;67.79;96746.84;5023705;28;20189;-63
2021/09/18 07:46:51;;;;;;;7.47;6.67;;;;;;;17.17;67.35;96746.31;5023014;28;20191;-62
2021/09/18 07:49:17;;;;;;;9.13;8.20;;;;;;;17.25;67.48;96756.38;5022131;28;20578;-62
2021/09/18 07:51:43;;;;;;;8.50;7.30;;;;;;;17.42;66.57;96756.84;5023828;28;20191;-62
2021/09/18 07:54:09;;;;;;;7.43;6.60;;;;;;;17.38;67.20;96758.47;5025751;28;20632;-63
2021/09/18 07:56:35;;;;;;;9.83;7.00;;;;;;;17.47;66.65;96750.72;5008167;28;20190;-62
2021/09/18 07:59:01;;;;;;;8.47;6.30;;;;;;;17.45;66.72;96747.53;5019574;28;20239;-62
2021/09/18 08:01:28;;;;;;;7.60;6.73;;;;;;;17.67;65.17;96749.88;5022621;28;20202;-61
2021/09/18 08:04:01;;;;;;;6.70;5.97;;;;;;;17.69;64.95;96759.16;5022171;28;20176;-63
2021/09/18 08:06:26;;;;;;;6.53;5.87;;;;;;;17.60;65.23;96752.03;5024143;28;20271;-61
2021/09/18 08:08:52;;;;;;;7.80;6.50;;;;;;;17.74;66.44;96742.41;5028609;28;20254;-61
2021/09/18 08:11:19;;;;;;;15.30;7.60;;;;;;;17.64;67.39;96751.22;5023619;28;20179;-61
2021/09/18 08:13:46;;;;;;;6.83;6.13;;;;;;;17.68;67.18;96759.41;5025746;28;20186;-61
2021/09/18 08:16:12;;;;;;;7.67;6.60;;;;;;;17.44;68.12;96760.00;5000505;28;20275;-62
2021/09/18 08:18:38;;;;;;;6.60;5.90;;;;;;;17.74;67.67;96759.13;5022891;28;20206;-62
2021/09/18 08:21:04;;;;;;;6.67;5.97;;;;;;;17.88;67.28;96756.69;5004605;28;20183;-62
2021/09/18 08:23:29;;;;;;;6.10;5.60;;;;;;;17.90;66.17;96757.19;5022316;28;20184;-62
2021/09/18 08:25:55;;;;;;;5.20;4.60;;;;;;;18.11;63.42;96763.94;5030777;28;20209;-62
2021/09/18 08:28:20;;;;;;;5.53;4.33;;;;;;;18.19;63.44;96757.28;5028383;28;20199;-63
2021/09/18 08:30:46;;;;;;;5.93;5.32;;;;;;;18.29;63.99;96759.88;5029201;28;20187;-62
2021/09/18 08:33:11;;;;;;;5.10;4.67;;;;;;;18.32;64.14;96756.69;5021129;28;20594;-62
2021/09/18 08:35:37;;;;;;;5.90;5.32;;;;;;;18.43;63.46;96766.16;5021904;28;20191;-63
2021/09/18 08:38:02;;;;;;;6.07;5.00;;;;;;;18.60;62.84;96753.31;5021032;28;20245;-63
2021/09/18 08:40:28;;;;;;;21.57;5.93;;;;;;;18.56;63.80;96762.09;5022178;28;20274;-63
2021/09/18 08:43:00;;;;;;;7.17;5.77;;;;;;;18.51;64.48;96754.94;5123155;27;21012;-62
2021/09/18 08:45:26;;;;;;;7.00;5.07;;;;;;;18.44;65.06;96756.31;5100187;28;20216;-64
2021/09/18 08:47:52;;;;;;;5.50;5.00;;;;;;;18.58;65.22;96755.44;5059095;28;20185;-63
2021/09/18 08:50:20;;;;;;;8.77;6.30;;;;;;;18.53;65.65;96766.06;5066935;28;20533;-64
2021/09/18 08:52:45;;;;;;;5.50;5.00;;;;;;;18.46;65.77;96757.63;5086347;28;20204;-63
2021/09/18 08:55:12;;;;;;;6.60;5.40;;;;;;;18.57;65.96;96761.81;5087257;28;20215;-63
2021/09/18 08:57:39;;;;;;;6.13;5.53;;;;;;;18.76;64.74;96761.94;5079453;28;20235;-62
2021/09/18 09:00:08;;;;;;;6.15;5.35;;;;;;;18.76;64.64;96769.09;5083128;28;20192;-63
2021/09/18 09:02:34;;;;;;;5.37;4.87;;;;;;;18.82;64.47;96766.13;5072285;28;20533;-63
2021/09/18 09:05:09;;;;;;;6.20;5.60;;;;;;;18.84;64.15;96757.84;5084519;28;20192;-61
2021/09/18 09:07:35;;;;;;;5.47;4.93;;;;;;;18.49;65.16;96759.75;5079586;28;20210;-62
2021/09/18 09:10:03;;;;;;;5.85;5.25;;;;;;;18.49;65.42;96757.09;5077166;28;20189;-62
2021/09/18 09:12:37;;;;;;;5.50;5.00;;;;;;;18.63;65.64;96762.56;5072588;28;20558;-63
2021/09/18 09:15:06;;;;;;;5.37;4.87;;;;;;;18.67;65.20;96761.72;5083342;28;20193;-63
2021/09/18 09:17:36;;;;;;;5.65;5.10;;;;;;;18.72;64.45;96763.56;5083201;28;20255;-62
2021/09/18 09:20:02;;;;;;;5.25;4.75;;;;;;;18.78;64.66;96759.78;5078153;28;20210;-63
2021/09/18 09:22:44;;;;;;;5.13;4.25;;;;;;;18.71;64.58;96754.00;5086228;28;20223;-63
2021/09/18 09:25:33;;;;;;;5.70;4.32;;;;;;;18.44;63.51;96758.97;5077409;28;20185;-63
2021/09/18 09:28:25;;;;;;;4.25;3.83;;;;;;;18.58;63.50;96759.94;5082907;28;20173;-63
2021/09/18 09:30:51;;;;;;;5.70;4.50;;;;;;;18.49;63.07;96749.13;5076088;28;20189;-62
2021/09/18 09:33:17;;;;;;;5.10;3.78;;;;;;;18.74;65.65;96750.00;5075583;28;20511;-61
2021/09/18 09:35:43;;;;;;;3.93;3.60;;;;;;;18.73;63.14;96751.06;5082716;28;20185;-61
2021/09/18 09:38:09;;;;;;;4.10;3.80;;;;;;;18.24;62.78;96752.72;5070430;28;20224;-63
2021/09/18 09:40:41;;;;;;;2.83;2.50;;;;;;;18.14;59.92;96747.50;5072501;28;20188;-62
2021/09/18 09:43:09;;;;;;;2.70;2.50;;;;;;;18.29;60.52;96747.38;5064761;28;20173;-61
2021/09/18 09:45:35;;;;;;;2.83;2.63;;;;;;;18.62;60.20;96745.84;5056053;28;20248;-60
2021/09/18 09:48:10;;;;;;;3.45;3.15;;;;;;;18.48;60.10;96747.53;5031845;28;20780;-60
2021/09/18 09:50:37;;;;;;;2.10;2.00;;;;;;;18.56;56.46;96748.81;5050435;28;20208;-61
